Time;durP1;ratioP1;P1;durP2;ratioP2;P2;SDS_P1;SDS_P2;PMS_P1;PMS_P2;Temp;Humidity;BMP_temperature;BMP_pressure;BME280_temperature;BME280_humidity;BME280_pressure;Samples;Min_cycle;Max_cycle;Signal;HPM_P1;HPM_P2
2023/09/27 00:01:25;;;;;;;;;;;;;;;13.92;100.00;101911.97;4979928;28;19933;-82
2023/09/27 00:04:11;;;;;;;;;;;;;;;13.91;100.00;101915.56;4996600;28;19929;-83
2023/09/27 00:06:57;;;;;;;;;;;;;;;13.90;100.00;101921.78;4996313;28;20412;-82
2023/09/27 00:09:42;;;;;;;;;;;;;;;13.89;100.00;101919.22;4976832;28;19925;-83
2023/09/27 00:12:31;;;;;;;;;;;;;;;13.88;100.00;101915.66;4990241;28;19966;-82
2023/09/27 00:15:16;;;;;;;;;;;;;;;13.87;100.00;101929.91;4990770;28;19956;-83
2023/09/27 00:18:02;;;;;;;;;;;;;;;13.85;100.00;101942.44;4978513;28;19937;-83
2023/09/27 00:20:50;;;;;;;;;;;;;;;13.83;100.00;101938.94;4994316;28;20024;-82
2023/09/27 00:23:36;;;;;;;;;;;;;;;13.82;100.00;101931.91;4994578;28;19933;-84
2023/09/27 00:26:21;;;;;;;;;;;;;;;13.82;100.00;101932.78;4980324;28;19930;-83
2023/09/27 00:29:07;;;;;;;;;;;;;;;13.82;100.00;101938.09;4993063;28;19934;-84
2023/09/27 00:31:52;;;;;;;;;;;;;;;13.83;100.00;101938.94;4993801;28;19933;-83
2023/09/27 00:34:38;;;;;;;;;;;;;;;13.82;100.00;101937.22;4995881;28;20381;-81
2023/09/27 00:37:24;;;;;;;;;;;;;;;13.82;100.00;101940.75;4996710;28;19933;-81
2023/09/27 00:40:15;;;;;;;;;;;;;;;13.81;100.00;101939.03;4978587;28;19922;-82
2023/09/27 00:43:00;;;;;;;;;;;;;;;13.82;100.00;101940.75;4982324;28;19933;-83
2023/09/27 00:45:46;;;;;;;;;;;;;;;13.82;100.00;101937.22;4972921;28;19931;-83
2023/09/27 00:48:32;;;;;;;;;;;;;;;13.81;100.00;101944.34;4996033;28;20008;-84
2023/09/27 00:51:18;;;;;;;;;;;;;;;13.80;100.00;101936.44;4997488;28;19922;-84
2023/09/27 00:54:03;;;;;;;;;;;;;;;13.79;100.00;101926.72;4983257;28;21872;-83
2023/09/27 00:56:52;;;;;;;;;;;;;;;13.78;100.00;101930.31;4967514;28;20434;-83
2023/09/27 00:59:41;;;;;;;;;;;;;;;13.79;100.00;101937.34;4979217;28;20537;-82
2023/09/27 01:02:27;;;;;;;;;;;;;;;13.77;100.00;101937.41;4979644;28;19929;-84
2023/09/27 01:05:12;;;;;;;;;;;;;;;13.78;100.00;101932.97;4976894;28;21777;-83
2023/09/27 01:07:58;;;;;;;;;;;;;;;13.77;100.00;101924.09;4979392;28;20425;-83
2023/09/27 01:10:44;;;;;;;;;;;;;;;13.76;100.00;101929.47;4965026;28;19929;-82
2023/09/27 01:13:30;;;;;;;;;;;;;;;13.75;100.00;101933.09;4989633;28;19933;-83
2023/09/27 01:16:16;;;;;;;;;;;;;;;13.73;100.00;101951.75;4990963;28;20000;-83
2023/09/27 01:19:02;;;;;;;;;;;;;;;13.71;100.00;101951.84;4986039;28;19925;-83
2023/09/27 01:21:47;;;;;;;;;;;;;;;13.71;100.00;101949.19;4992668;28;19932;-83
2023/09/27 01:24:39;;;;;;;;;;;;;;;13.69;100.00;101951.03;4991048;28;19943;-83
2023/09/27 01:27:24;;;;;;;;;;;;;;;13.66;100.00;101944.97;4992826;28;19926;-82
2023/09/27 01:30:10;;;;;;;;;;;;;;;13.63;100.00;101934.47;4991803;28;20103;-83
2023/09/27 01:32:56;;;;;;;;;;;;;;;13.60;100.00;101948.75;4989662;28;20001;-83
2023/09/27 01:35:42;;;;;;;;;;;;;;;13.55;100.00;101940.09;4988404;28;19926;-83
2023/09/27 01:38:28;;;;;;;;;;;;;;;13.52;100.00;101953.53;4976063;28;20019;-83
2023/09/27 01:41:14;;;;;;;;;;;;;;;13.47;100.00;101951.06;4964850;28;20024;-84
2023/09/27 01:44:00;;;;;;;;;;;;;;;13.45;100.00;101955.50;4990891;28;20459;-83
2023/09/27 01:46:46;;;;;;;;;;;;;;;13.41;100.00;101951.28;4978215;28;19925;-83
2023/09/27 01:49:31;;;;;;;;;;;;;;;13.37;100.00;101953.19;4982732;28;19927;-83
2023/09/27 01:52:17;;;;;;;;;;;;;;;13.36;100.00;101950.56;4978682;28;19937;-83
2023/09/27 01:55:03;;;;;;;;;;;;;;;13.34;100.00;101947.97;4979053;28;19961;-83
2023/09/27 01:57:49;;;;;;;;;;;;;;;13.32;100.00;101963.13;4977848;28;19934;-82
2023/09/27 02:00:36;;;;;;;;;;;;;;;13.29;100.00;101965.91;4985364;28;19940;-83
2023/09/27 02:03:21;;;;;;;;;;;;;;;13.25;100.00;101959.81;4978407;28;19934;-83
2023/09/27 02:06:07;;;;;;;;;;;;;;;13.23;100.00;101960.84;4972020;28;21362;-83
2023/09/27 02:08:53;;;;;;;;;;;;;;;13.20;100.00;101950.31;4976623;28;20012;-83
2023/09/27 02:11:38;;;;;;;;;;;;;;;13.16;100.00;101942.47;4988072;28;20098;-83
2023/09/27 02:14:24;;;;;;;;;;;;;;;13.14;100.00;101935.47;4989485;28;20478;-83
2023/09/27 02:17:12;;;;;;;;;;;;;;;13.11;100.00;101927.59;4978271;28;19929;-83
2023/09/27 02:19:58;;;;;;;;;;;;;;;13.08;100.00;101941.88;4974345;28;19934;-83
2023/09/27 02:22:46;;;;;;;;;;;;;;;13.06;100.00;101933.09;4992548;28;19929;-84
2023/09/27 02:25:32;;;;;;;;;;;;;;;13.04;100.00;101935.81;4977297;28;20052;-83
2023/09/27 02:28:18;;;;;;;;;;;;;;;13.02;100.00;101947.44;4980299;28;20015;-82
2023/09/27 02:31:08;;;;;;;;;;;;;;;12.98;100.00;101941.38;4991541;28;19933;-83
2023/09/27 02:33:54;;;;;;;;;;;;;;;12.97;100.00;101941.44;4977002;28;21974;-82
2023/09/27 02:36:41;;;;;;;;;;;;;;;12.95;100.00;101930.84;4992235;28;19937;-83
2023/09/27 02:39:29;;;;;;;;;;;;;;;12.95;100.00;101929.97;4977212;28;20044;-83
2023/09/27 02:42:15;;;;;;;;;;;;;;;12.93;100.00;101927.41;4977965;28;20093;-83
2023/09/27 02:45:01;;;;;;;;;;;;;;;12.92;100.00;101930.09;4970208;28;19985;-83
2023/09/27 02:47:47;;;;;;;;;;;;;;;12.90;100.00;101922.19;4981187;28;20588;-83
2023/09/27 02:50:32;;;;;;;;;;;;;;;12.89;100.00;101921.34;4978754;28;19922;-85
2023/09/27 02:53:18;;;;;;;;;;;;;;;12.87;100.00;101917.84;4998114;28;19987;-84
2023/09/27 02:56:05;;;;;;;;;;;;;;;12.86;100.00;101916.13;4984900;28;20931;-84
2023/09/27 02:58:50;;;;;;;;;;;;;;;12.84;100.00;101917.97;4997605;28;19969;-84
2023/09/27 03:01:40;;;;;;;;;;;;;;;12.79;100.00;101925.25;4988187;28;19925;-83
2023/09/27 03:04:25;;;;;;;;;;;;;;;12.75;100.00;101931.63;4973268;28;19925;-84
2023/09/27 03:07:11;;;;;;;;;;;;;;;12.72;100.00;101932.59;4983016;28;19973;-83
2023/09/27 03:10:08;;;;;;;;;;;;;;;12.71;100.00;101943.28;4973070;28;19932;-83
2023/09/27 03:12:54;;;;;;;;;;;;;;;12.69;100.00;101940.66;4986816;28;19940;-83
2023/09/27 03:15:40;;;;;;;;;;;;;;;12.63;100.00;101941.78;4998363;28;19936;-83
2023/09/27 03:18:26;;;;;;;;;;;;;;;12.61;100.00;101948.94;4981312;28;22053;-83
2023/09/27 03:21:12;;;;;;;;;;;;;;;12.60;100.00;101949.00;4982035;28;20372;-83
2023/09/27 03:23:57;;;;;;;;;;;;;;;12.56;100.00;101950.88;4996533;28;20210;-83
2023/09/27 03:26:43;;;;;;;;;;;;;;;12.53;100.00;101958.09;4993721;28;21137;-83
2023/09/27 03:29:32;;;;;;;;;;;;;;;12.49;100.00;101950.22;4978432;28;19925;-83
2023/09/27 03:32:19;;;;;;;;;;;;;;;12.48;100.00;101947.66;4981605;28;20014;-83
2023/09/27 03:35:07;;;;;;;;;;;;;;;12.47;100.00;101941.47;4983778;28;20544;-83
2023/09/27 03:37:56;;;;;;;;;;;;;;;12.47;100.00;101927.28;4980029;28;20716;-83
2023/09/27 03:40:42;;;;;;;;;;;;;;;12.48;100.00;101931.72;4995465;28;20165;-82
2023/09/27 03:43:30;;;;;;;;;;;;;;;12.46;100.00;101938.84;4978838;28;19928;-84
2023/09/27 03:46:16;;;;;;;;;;;;;;;12.46;100.00;101938.84;4985495;28;19929;-84
2023/09/27 03:49:02;;;;;;;;;;;;;;;12.45;100.00;101937.13;4979028;28;19997;-83
2023/09/27 03:51:47;;;;;;;;;;;;;;;12.45;100.00;101939.78;4994659;28;20444;-84
2023/09/27 03:54:33;;;;;;;;;;;;;;;12.42;100.00;101930.13;4997774;28;20564;-85
2023/09/27 03:57:18;;;;;;;;;;;;;;;12.41;100.00;101931.06;4998849;28;20658;-84
2023/09/27 04:00:08;;;;;;;;;;;;;;;12.41;100.00;101931.06;4994984;28;20335;-84
2023/09/27 04:02:54;;;;;;;;;;;;;;;12.42;100.00;101931.94;4977189;28;19936;-84
2023/09/27 04:05:47;;;;;;;;;;;;;;;12.42;100.00;101942.56;4984298;28;19957;-85
2023/09/27 04:08:34;;;;;;;;;;;;;;;12.41;100.00;101939.00;4999588;28;19937;-84
2023/09/27 04:11:20;;;;;;;;;;;;;;;12.40;100.00;101934.63;4985494;28;19926;-85
2023/09/27 04:14:05;;;;;;;;;;;;;;;12.40;100.00;101939.06;4988662;28;20063;-84
2023/09/27 04:16:51;;;;;;;;;;;;;;;12.40;100.00;101941.72;4997931;28;19925;-83
2023/09/27 04:19:37;;;;;;;;;;;;;;;12.39;100.00;101946.19;4984999;28;19922;-84
2023/09/27 04:22:23;;;;;;;;;;;;;;;12.39;100.00;101953.28;4991641;28;19926;-84
2023/09/27 04:25:09;;;;;;;;;;;;;;;12.38;100.00;101970.13;4987557;28;19929;-85
2023/09/27 04:27:54;;;;;;;;;;;;;;;12.36;100.00;101967.53;5000729;28;19950;-84
2023/09/27 04:30:40;;;;;;;;;;;;;;;12.34;100.00;101975.56;5000851;28;19934;-84
2023/09/27 04:33:26;;;;;;;;;;;;;;;12.34;100.00;101975.56;4999248;28;20019;-84
2023/09/27 04:36:20;;;;;;;;;;;;;;;12.33;100.00;101980.91;4969608;28;20019;-85
2023/09/27 04:39:14;;;;;;;;;;;;;;;12.32;100.00;101987.16;4996167;28;19930;-85
2023/09/27 04:41:59;;;;;;;;;;;;;;;12.32;100.00;101982.69;4984026;28;19926;-84
2023/09/27 04:44:45;;;;;;;;;;;;;;;12.32;100.00;101985.34;4982680;28;19934;-85
2023/09/27 04:47:30;;;;;;;;;;;;;;;12.32;100.00;101988.00;4985643;28;19926;-84
2023/09/27 04:50:19;;;;;;;;;;;;;;;12.35;100.00;101989.69;4983158;28;19922;-84
2023/09/27 04:53:05;;;;;;;;;;;;;;;12.35;100.00;101982.59;4997259;28;19949;-84
2023/09/27 04:55:53;;;;;;;;;;;;;;;12.35;100.00;101977.28;4982352;28;20321;-84
2023/09/27 04:58:42;;;;;;;;;;;;;;;12.37;100.00;101987.88;4965555;28;19925;-83
2023/09/27 05:01:28;;;;;;;;;;;;;;;12.37;100.00;102001.16;4979020;28;19977;-84
2023/09/27 05:04:14;;;;;;;;;;;;;;;12.35;100.00;101995.88;4989114;28;20608;-85
2023/09/27 05:06:59;;;;;;;;;;;;;;;12.36;100.00;101992.28;4991870;28;19933;-84
2023/09/27 05:09:45;;;;;;;;;;;;;;;12.37;100.00;101971.94;4991116;28;19930;-84
2023/09/27 05:12:31;;;;;;;;;;;;;;;12.38;100.00;101972.78;4978457;28;19979;-84
2023/09/27 05:15:17;;;;;;;;;;;;;;;12.34;100.00;101980.88;4974967;28;20239;-85
2023/09/27 05:18:02;;;;;;;;;;;;;;;12.32;100.00;101995.97;4979265;28;19933;-84
2023/09/27 05:20:48;;;;;;;;;;;;;;;12.29;100.00;101974.84;4968700;28;19984;-84
2023/09/27 05:23:34;;;;;;;;;;;;;;;12.27;100.00;101968.72;4964229;28;20553;-85
2023/09/27 05:26:22;;;;;;;;;;;;;;;12.25;100.00;101969.69;4965433;28;19933;-84
2023/09/27 05:29:14;;;;;;;;;;;;;;;12.21;100.00;101958.31;4991713;28;20584;-83
2023/09/27 05:31:59;;;;;;;;;;;;;;;12.18;100.00;101953.09;4979075;28;19929;-84
2023/09/27 05:34:45;;;;;;;;;;;;;;;12.15;100.00;101966.50;4961371;28;20297;-85
2023/09/27 05:37:31;;;;;;;;;;;;;;;12.09;100.00;101981.69;4967195;28;19929;-83
2023/09/27 05:40:17;;;;;;;;;;;;;;;12.06;100.00;101976.50;4991364;28;19968;-83
2023/09/27 05:43:05;;;;;;;;;;;;;;;12.03;100.00;101976.59;4993384;28;19925;-84
2023/09/27 05:45:51;;;;;;;;;;;;;;;12.05;100.00;101977.41;4976085;28;19933;-84
2023/09/27 05:48:36;;;;;;;;;;;;;;;12.05;100.00;101977.41;4991911;28;19961;-85
2023/09/27 05:51:23;;;;;;;;;;;;;;;12.05;100.00;101969.44;4986781;28;19956;-85
2023/09/27 05:54:12;;;;;;;;;;;;;;;12.07;100.00;101972.94;4989227;28;19972;-84
2023/09/27 05:56:59;;;;;;;;;;;;;;;12.08;100.00;101966.69;4979336;28;20663;-84
2023/09/27 05:59:45;;;;;;;;;;;;;;;12.06;100.00;101976.50;4992747;28;19930;-84
2023/09/27 06:02:31;;;;;;;;;;;;;;;12.05;100.00;101974.75;4976345;28;19934;-84
2023/09/27 06:05:16;;;;;;;;;;;;;;;12.05;100.00;101973.91;4975181;28;19996;-84
2023/09/27 06:08:03;;;;;;;;;;;;;;;12.03;100.00;101968.63;4964913;28;19965;-85
2023/09/27 06:10:48;;;;;;;;;;;;;;;12.02;100.00;101971.31;4978854;28;19933;-84
2023/09/27 06:13:35;;;;;;;;;;;;;;;12.03;100.00;101970.38;4993812;28;20059;-85
2023/09/27 06:16:21;;;;;;;;;;;;;;;12.04;100.00;101978.31;4977812;28;20361;-85
2023/09/27 06:19:11;;;;;;;;;;;;;;;12.06;100.00;101979.16;4990300;28;20535;-84
2023/09/27 06:22:17;;;;;;;;;;;;;;;12.09;100.00;101976.38;4976560;28;19929;-84
2023/09/27 06:25:04;;;;;;;;;;;;;;;12.15;100.00;101977.13;4966131;28;20293;-83
2023/09/27 06:27:51;;;;;;;;;;;;;;;12.18;100.00;101974.34;4990366;28;19930;-84
2023/09/27 06:30:37;;;;;;;;;;;;;;;12.22;100.00;101978.63;4976679;28;20328;-84
2023/09/27 06:33:22;;;;;;;;;;;;;;;12.26;100.00;101980.25;4979393;28;19933;-84
2023/09/27 06:36:08;;;;;;;;;;;;;;;12.28;100.00;101970.47;4979578;28;19983;-83
2023/09/27 06:38:54;;;;;;;;;;;;;;;12.31;100.00;101967.69;4982939;28;19930;-83
2023/09/27 06:41:40;;;;;;;;;;;;;;;12.38;100.00;101972.78;4979032;28;20661;-84
2023/09/27 06:44:33;;;;;;;;;;;;;;;12.45;100.00;101980.50;4978941;28;19980;-83
2023/09/27 06:47:18;;;;;;;;;;;;;;;12.54;100.00;101976.66;4978022;28;19930;-83
2023/09/27 06:50:04;;;;;;;;;;;;;;;12.62;100.00;101982.53;4993310;28;20404;-84
2023/09/27 06:52:50;;;;;;;;;;;;;;;12.72;100.00;101998.16;4979220;28;19929;-84
2023/09/27 06:55:36;;;;;;;;;;;;;;;12.81;100.00;101997.81;4978836;28;21301;-84
2023/09/27 06:58:25;;;;;;;;;;;;;;;12.90;100.00;101996.59;4992220;28;19926;-84
2023/09/27 07:01:11;;;;;;;;;;;;;;;12.99;100.00;101998.94;4961544;28;19926;-84
2023/09/27 07:03:56;;;;;;;;;;;;;;;13.08;100.00;102007.47;4978526;28;19969;-83
2023/09/27 07:06:42;;;;;;;;;;;;;;;13.14;100.00;101989.50;4976447;28;19937;-82
2023/09/27 07:09:31;;;;;;;;;;;;;;;13.21;100.00;101994.56;4979069;28;19975;-84
2023/09/27 07:12:19;;;;;;;;;;;;;;;13.26;100.00;102003.25;4960046;28;19929;-85
2023/09/27 07:15:09;;;;;;;;;;;;;;;13.33;100.00;102001.25;4989352;28;19964;-85
2023/09/27 07:17:55;;;;;;;;;;;;;;;13.39;100.00;102003.63;4963885;28;19929;-85
2023/09/27 07:20:41;;;;;;;;;;;;;;;13.44;100.00;102007.88;4975708;28;19929;-83
2023/09/27 07:23:27;;;;;;;;;;;;;;;13.51;100.00;102013.84;4975303;28;19929;-84
2023/09/27 07:26:13;;;;;;;;;;;;;;;13.56;100.00;102013.66;4989459;28;20007;-84
2023/09/27 07:29:22;;;;;;;;;;;;;;;13.65;100.00;102012.41;5083301;27;20018;-84
2023/09/27 07:32:11;;;;;;;;;;;;;;;13.70;100.00;102000.69;5086325;28;19936;-84
2023/09/27 07:34:58;;;;;;;;;;;;;;;13.77;100.00;102003.94;5086307;28;20366;-83
2023/09/27 07:37:44;;;;;;;;;;;;;;;13.83;100.00;102005.47;5084352;28;19995;-83
2023/09/27 07:40:30;;;;;;;;;;;;;;;13.89;100.00;102005.25;5077592;28;19929;-85
2023/09/27 07:43:16;;;;;;;;;;;;;;;13.96;100.00;102008.53;5082501;28;20430;-83
2023/09/27 07:46:05;;;;;;;;;;;;;;;14.05;100.00;102020.59;5081744;28;20458;-83
2023/09/27 07:48:51;;;;;;;;;;;;;;;14.13;100.00;102026.47;5083845;28;19939;-83
2023/09/27 07:51:36;;;;;;;;;;;;;;;14.23;100.00;102006.50;5104340;27;19936;-84
2023/09/27 07:54:23;;;;;;;;;;;;;;;14.36;100.00;101996.19;5110073;27;19924;-84
2023/09/27 07:57:14;;;;;;;;;;;;;;;14.47;100.00;101989.53;5083115;28;20066;-84
2023/09/27 08:00:02;;;;;;;;;;;;;;;14.59;100.00;102002.31;5097381;28;19959;-86
2023/09/27 08:02:55;;;;;;;;;;;;;;;14.71;100.00;101998.22;5119384;27;19962;-85
2023/09/27 08:05:45;;;;;;;;;;;;;;;14.85;100.00;101994.09;5111918;27;20011;-86
2023/09/27 08:08:30;;;;;;;;;;;;;;;14.96;100.00;102005.16;5122413;27;20440;-85
2023/09/27 08:11:19;;;;;;;;;;;;;;;15.09;100.00;102004.59;5123531;27;19928;-84
2023/09/27 08:14:04;;;;;;;;;;;;;;;15.21;100.00;102006.69;5124768;27;19934;-86
2023/09/27 08:16:50;;;;;;;;;;;;;;;15.33;100.00;102018.59;5121838;27;19962;-85
2023/09/27 08:19:38;;;;;;;;;;;;;;;15.43;100.00;102003.00;5106618;27;19934;-86
2023/09/27 08:22:24;;;;;;;;;;;;;;;15.53;100.00;102017.63;5100080;27;19975;-86
2023/09/27 08:25:14;;;;;;;;;;;;;;;15.66;100.00;102035.72;5108519;27;19982;-85
2023/09/27 08:28:01;;;;;;;;;;;;;;;15.82;100.00;102034.06;5097136;27;20431;-85
2023/09/27 08:30:47;;;;;;;;;;;;;;;15.96;100.00;102037.91;5111375;27;20450;-85
2023/09/27 08:33:33;;;;;;;;;;;;;;;16.07;100.00;102043.56;5092841;27;19923;-82
2023/09/27 08:36:18;;;;;;;;;;;;;;;16.23;100.00;102050.81;5105698;27;19938;-84
2023/09/27 08:39:06;;;;;;;;;;;;;;;16.37;100.00;102056.31;5100075;27;20221;-83
2023/09/27 08:41:54;;;;;;;;;;;;;;;16.53;100.00;102052.84;5093322;27;19943;-84
2023/09/27 08:44:40;;;;;;;;;;;;;;;16.65;100.00;102049.56;5097296;27;19935;-89
2023/09/27 08:47:26;;;;;;;;;;;;;;;16.79;100.00;102053.31;5110316;27;21743;-88
2023/09/27 08:50:19;;;;;;;;;;;;;;;16.88;100.00;102057.31;5110671;27;19935;-90
2023/09/27 08:53:07;;;;;;;;;;;;;;;16.96;100.00;102055.09;5096645;27;20292;-92
2023/09/27 08:55:53;;;;;;;;;;;;;;;17.03;100.00;102058.31;5097747;27;19927;-90
2023/09/27 08:58:39;;;;;;;;;;;;;;;17.10;100.00;102041.88;5111382;27;19919;-91
2023/09/27 09:01:25;;;;;;;;;;;;;;;17.18;100.00;102051.28;5095920;27;19950;-91
2023/09/27 09:04:12;;;;;;;;;;;;;;;17.26;100.00;102053.56;5096619;27;19934;-91
2023/09/27 09:06:57;;;;;;;;;;;;;;;17.34;100.00;102060.19;5089605;27;19934;-92
2023/09/27 09:09:45;;;;;;;;;;;;;;;17.45;100.00;102058.75;5090333;27;20157;-91
2023/09/27 09:12:33;;;;;;;;;;;;;;;17.54;100.00;102062.72;5122198;27;19931;-96
2023/09/27 09:15:51;;;;;;;;;;;;;;;17.62;100.00;102044.41;5091967;27;19930;-90
2023/09/27 09:18:39;;;;;;;;;;;;;;;17.69;100.00;102043.09;5115693;27;19935;-89
2023/09/27 09:21:25;;;;;;;;;;;;;;;17.80;100.00;102041.66;5086243;27;19929;-92
2023/09/27 09:24:20;;;;;;;;;;;;;;;17.92;100.00;102040.91;5095786;27;20382;-91
2023/09/27 09:27:07;;;;;;;;;;;;;;;18.03;100.00;102046.53;5110709;27;19928;-86
2023/09/27 09:29:53;;;;;;;;;;;;;;;18.11;100.00;102034.53;5095164;27;20482;-86
2023/09/27 09:32:57;;;;;;;;;;;;;;;18.17;100.00;102026.13;5096636;27;19924;-86
2023/09/27 09:35:43;;;;;;;;;;;;;;;18.17;100.00;102037.72;5109897;27;19954;-86
2023/09/27 09:38:30;;;;;;;;;;;;;;;18.16;100.00;102022.59;5094713;27;19939;-85
2023/09/27 09:41:19;;;;;;;;;;;;;;;18.19;100.00;102018.84;5094790;27;19955;-87
2023/09/27 09:44:37;;;;;;;;;;;;;;;18.19;100.00;102021.53;5093422;27;19928;-86
2023/09/27 09:47:24;;;;;;;;;;;;;;;18.21;100.00;102002.69;5074478;27;19930;-88
2023/09/27 09:50:19;;;;;;;;;;;;;;;18.21;100.00;102002.69;5082533;27;19927;-88
2023/09/27 09:53:14;;;;;;;;;;;;;;;18.18;100.00;102004.59;5093501;27;20243;-89
2023/09/27 09:56:05;;;;;;;;;;;;;;;18.15;100.00;102012.81;5083683;27;19927;-88
2023/09/27 09:58:54;;;;;;;;;;;;;;;18.12;100.00;102006.78;5079279;27;19924;-89
2023/09/27 10:01:42;;;;;;;;;;;;;;;18.08;100.00;101994.53;5107623;27;19928;-88
2023/09/27 10:04:28;;;;;;;;;;;;;;;18.03;100.00;101994.78;5107632;27;19923;-89
2023/09/27 10:07:14;;;;;;;;;;;;;;;17.98;100.00;101995.03;5107096;27;20385;-87
2023/09/27 10:09:59;;;;;;;;;;;;;;;17.94;100.00;101996.19;5078789;27;19927;-88
2023/09/27 10:12:46;;;;;;;;;;;;;;;17.91;100.00;102004.38;5076877;27;19927;-88
2023/09/27 10:15:35;;;;;;;;;;;;;;;17.93;100.00;101994.44;5091746;27;19931;-90
2023/09/27 10:18:21;;;;;;;;;;;;;;;17.95;100.00;101988.97;5076987;27;19958;-87
2023/09/27 10:21:08;;;;;;;;;;;;;;;17.95;100.00;101987.19;5090886;27;19932;-88
2023/09/27 10:23:57;;;;;;;;;;;;;;;17.97;100.00;101987.09;5089996;27;20564;-89
2023/09/27 10:26:43;;;;;;;;;;;;;;;17.98;100.00;101986.97;5091991;27;19938;-87
2023/09/27 10:29:29;;;;;;;;;;;;;;;18.02;100.00;101974.28;5086315;27;19927;-85
2023/09/27 10:32:23;;;;;;;;;;;;;;;18.03;100.00;101968.81;5090758;27;20027;-86
2023/09/27 10:35:16;;;;;;;;;;;;;;;18.04;100.00;101977.75;5118779;27;19927;-89
2023/09/27 10:38:08;;;;;;;;;;;;;;;18.08;100.00;101973.09;5091565;27;19927;-87
2023/09/27 10:40:56;;;;;;;;;;;;;;;18.08;100.00;101979.31;5105706;27;19939;-88
2023/09/27 10:43:43;;;;;;;;;;;;;;;18.10;100.00;101966.69;5091461;27;20424;-88
2023/09/27 10:46:45;;;;;;;;;;;;;;;18.09;100.00;101950.69;5117767;27;19957;-87
2023/09/27 10:49:38;;;;;;;;;;;;;;;18.10;100.00;101949.75;5079754;28;19927;-86
2023/09/27 10:52:26;;;;;;;;;;;;;;;18.14;100.00;101938.75;5110466;27;21937;-86
2023/09/27 10:55:12;;;;;;;;;;;;;;;18.12;100.00;101937.97;5104368;27;19946;-88
2023/09/27 10:57:58;;;;;;;;;;;;;;;18.12;100.00;101940.66;5090607;27;19934;-85
2023/09/27 11:00:49;;;;;;;;;;;;;;;18.12;100.00;101924.59;5079077;27;19971;-87
2023/09/27 11:03:35;;;;;;;;;;;;;;;18.14;100.00;101925.34;5095033;27;19923;-86
2023/09/27 11:06:21;;;;;;;;;;;;;;;18.16;100.00;101931.50;5091660;27;20247;-89
2023/09/27 11:09:07;;;;;;;;;;;;;;;18.15;100.00;101936.94;5104221;27;20359;-88
2023/09/27 11:11:57;;;;;;;;;;;;;;;18.15;100.00;101929.75;5079198;27;19930;-87
2023/09/27 11:14:45;;;;;;;;;;;;;;;18.18;100.00;101931.38;5091258;27;19983;-86
2023/09/27 11:17:31;;;;;;;;;;;;;;;18.18;100.00;101923.34;5086862;27;19942;-85
2023/09/27 11:20:20;;;;;;;;;;;;;;;18.21;100.00;101919.63;5088389;28;19932;-85
2023/09/27 11:23:07;;;;;;;;;;;;;;;18.22;100.00;101919.53;5086585;28;19935;-86
2023/09/27 11:25:55;;;;;;;;;;;;;;;18.24;100.00;101917.59;5101879;28;20631;-83
2023/09/27 11:28:41;;;;;;;;;;;;;;;18.25;100.00;101924.69;5072952;28;19923;-86
2023/09/27 11:31:28;;;;;;;;;;;;;;;18.26;100.00;101918.38;5090804;28;19954;-87
2023/09/27 11:34:17;;;;;;;;;;;;;;;18.28;100.00;101911.13;5089751;28;19969;-87
2023/09/27 11:37:10;;;;;;;;;;;;;;;18.30;100.00;101905.66;5105436;28;19981;-85
2023/09/27 11:39:57;;;;;;;;;;;;;;;18.29;100.00;101918.19;5087653;28;19977;-86
2023/09/27 11:42:47;;;;;;;;;;;;;;;18.33;100.00;101932.28;5101901;27;20393;-85
2023/09/27 11:45:46;;;;;;;;;;;;;;;18.40;100.00;101916.66;5085391;28;19923;-86
2023/09/27 11:48:33;;;;;;;;;;;;;;;18.49;100.00;101921.47;5085639;28;20072;-88
2023/09/27 11:51:19;;;;;;;;;;;;;;;18.57;100.00;101927.19;5082459;28;20051;-86
2023/09/27 11:54:05;;;;;;;;;;;;;;;18.64;100.00;101914.28;5116261;27;20449;-86
2023/09/27 11:56:53;;;;;;;;;;;;;;;18.71;100.00;101912.06;5086364;28;19928;-87
2023/09/27 11:59:39;;;;;;;;;;;;;;;18.75;100.00;101913.59;5073967;27;19958;-87
2023/09/27 12:02:24;;;;;;;;;;;;;;;18.80;100.00;101911.47;5075000;28;19930;-86
2023/09/27 12:05:10;;;;;;;;;;;;;;;18.90;100.00;101900.16;5078636;28;19919;-86
2023/09/27 12:07:56;;;;;;;;;;;;;;;18.96;100.00;101894.41;5074427;28;20330;-86
2023/09/27 12:10:41;;;;;;;;;;;;;;;19.03;100.00;101893.09;5118374;27;20012;-86
2023/09/27 12:13:27;;;;;;;;;;;;;;;19.06;100.00;101882.13;5104892;28;20483;-87
2023/09/27 12:16:15;;;;;;;;;;;;;;;19.17;100.00;101888.63;5066755;27;20434;-84
2023/09/27 12:19:05;;;;;;;;;;;;;;;19.25;100.00;101884.50;5104280;27;20290;-86
2023/09/27 12:21:56;;;;;;;;;;;;;;;19.33;100.00;101865.16;5111498;27;20089;-85
2023/09/27 12:24:42;;;;;;;;;;;;;;;19.41;100.00;101860.13;5088795;27;19916;-83
2023/09/27 12:27:28;;;;;;;;;;;;;;;19.47;100.00;101855.34;5098065;27;19924;-85
2023/09/27 12:30:17;;;;;;;;;;;;;;;19.53;100.00;101853.09;5110890;27;19984;-84
2023/09/27 12:33:02;;;;;;;;;;;;;;;19.57;100.00;101863.63;5112443;27;19935;-85
2023/09/27 12:35:49;;;;;;;;;;;;;;;19.62;100.00;101859.66;5096206;27;20341;-84
2023/09/27 12:38:38;;;;;;;;;;;;;;;19.71;100.00;101862.69;5093266;27;19914;-84
2023/09/27 12:41:26;;;;;;;;;;;;;;;19.76;100.00;101871.28;5093887;27;19932;-84
2023/09/27 12:44:12;;;;;;;;;;;;;;;19.84;100.00;101857.34;5109213;27;19934;-85
2023/09/27 12:46:58;;;;;;;;;;;;;;;19.88;100.00;101859.69;5095017;27;19946;-87
2023/09/27 12:49:44;;;;;;;;;;;;;;;19.94;100.00;101848.53;5111584;27;20009;-85
2023/09/27 12:52:31;;;;;;;;;;;;;;;19.98;100.00;101842.97;5096221;27;20753;-85
2023/09/27 12:55:16;;;;;;;;;;;;;;;20.00;100.00;101835.66;5091447;27;19928;-85
2023/09/27 12:58:03;;;;;;;;;;;;;;;20.02;100.00;101828.34;5098311;27;19999;-82
2023/09/27 13:00:48;;;;;;;;;;;;;;;20.08;100.00;101817.16;5102603;27;19923;-84
2023/09/27 13:03:34;;;;;;;;;;;;;;;20.06;100.00;101814.56;5110050;27;20328;-84
2023/09/27 13:06:21;;;;;;;;;;;;;;;20.06;100.00;101811.03;5108944;27;20458;-83
2023/09/27 13:09:07;;;;;;;;;;;;;;;20.05;100.00;101812.88;5094906;27;19932;-82
2023/09/27 13:11:53;;;;;;;;;;;;;;;20.03;100.00;101806.75;5095806;27;19927;-84
2023/09/27 13:14:39;;;;;;;;;;;;;;;20.03;100.00;101805.88;5109326;27;19927;-84
2023/09/27 13:17:24;;;;;;;;;;;;;;;20.02;100.00;101805.03;5094838;27;20263;-85
2023/09/27 13:20:10;;;;;;;;;;;;;;;20.04;100.00;101797.72;5096615;27;20516;-85
2023/09/27 13:22:56;;;;;;;;;;;;;;;20.08;100.00;101801.91;5108425;27;19956;-88
2023/09/27 13:25:49;;;;;;;;;;;;;;;20.11;100.00;101795.47;5092676;27;19932;-86
2023/09/27 13:28:34;;;;;;;;;;;;;;;20.14;100.00;101788.97;5109103;27;20285;-85
2023/09/27 13:31:20;;;;;;;;;;;;;;;20.16;100.00;101787.91;5106408;27;19932;-86
2023/09/27 13:34:08;;;;;;;;;;;;;;;20.14;100.00;101787.16;5088045;27;19938;-86
2023/09/27 13:36:57;;;;;;;;;;;;;;;20.10;100.00;101782.97;5110436;27;19951;-85
2023/09/27 13:39:45;;;;;;;;;;;;;;;20.05;100.00;101775.25;5108973;27;20646;-84
2023/09/27 13:42:34;;;;;;;;;;;;;;;20.09;100.00;101765.13;5082252;27;19980;-86
2023/09/27 13:45:22;;;;;;;;;;;;;;;20.11;100.00;101765.91;5106860;27;19923;-85
2023/09/27 13:48:10;;;;;;;;;;;;;;;20.12;100.00;101764.94;5095303;27;19923;-85
2023/09/27 13:50:59;;;;;;;;;;;;;;;20.19;100.00;101755.44;5097285;27;20010;-85
2023/09/27 13:53:44;;;;;;;;;;;;;;;20.22;100.00;101757.91;5094369;27;19998;-84
2023/09/27 13:56:32;;;;;;;;;;;;;;;20.24;100.00;101756.91;5105631;27;21053;-86
2023/09/27 13:59:19;;;;;;;;;;;;;;;20.26;100.00;101769.28;5091554;27;19935;-85
2023/09/27 14:02:06;;;;;;;;;;;;;;;20.31;100.00;101758.19;5094986;27;19928;-83
2023/09/27 14:04:53;;;;;;;;;;;;;;;20.34;100.00;101756.16;5110040;27;21888;-84
2023/09/27 14:07:42;;;;;;;;;;;;;;;20.36;100.00;101745.28;5099215;27;19931;-88
2023/09/27 14:10:44;;;;;;;;;;;;;;;20.37;100.00;101740.78;5085144;27;19988;-86